sensor_id;sensor_type;location;lat;lon;timestamp;P1;durP1;ratioP1;P2;durP2;ratioP2
14736;SDS011;7459;53.590;10.062;2023-07-02T00:01:47;7.70;;;1.27;;
14736;SDS011;7459;53.590;10.062;2023-07-02T00:04:13;4.93;;;1.40;;
14736;SDS011;7459;53.590;10.062;2023-07-02T00:06:44;5.18;;;1.63;;
14736;SDS011;7459;53.590;10.062;2023-07-02T00:09:13;5.32;;;1.52;;
14736;SDS011;7459;53.590;10.062;2023-07-02T00:11:40;5.07;;;1.08;;
14736;SDS011;7459;53.590;10.062;2023-07-02T00:14:08;4.45;;;1.15;;
14736;SDS011;7459;53.590;10.062;2023-07-02T00:16:37;4.90;;;1.30;;
14736;SDS011;7459;53.590;10.062;2023-07-02T00:19:07;7.35;;;1.60;;
14736;SDS011;7459;53.590;10.062;2023-07-02T00:21:33;7.00;;;1.25;;
14736;SDS011;7459;53.590;10.062;2023-07-02T00:23:59;6.23;;;1.17;;
14736;SDS011;7459;53.590;10.062;2023-07-02T00:26:25;6.10;;;1.23;;
14736;SDS011;7459;53.590;10.062;2023-07-02T00:28:53;6.13;;;1.50;;
14736;SDS011;7459;53.590;10.062;2023-07-02T00:31:20;3.75;;;1.05;;
14736;SDS011;7459;53.590;10.062;2023-07-02T00:33:46;4.67;;;1.13;;
14736;SDS011;7459;53.590;10.062;2023-07-02T00:36:13;5.05;;;1.50;;
14736;SDS011;7459;53.590;10.062;2023-07-02T00:38:42;7.22;;;1.70;;
14736;SDS011;7459;53.590;10.062;2023-07-02T00:41:11;8.10;;;1.40;;
14736;SDS011;7459;53.590;10.062;2023-07-02T00:43:37;5.63;;;1.80;;
14736;SDS011;7459;53.590;10.062;2023-07-02T00:46:19;7.15;;;1.80;;
14736;SDS011;7459;53.590;10.062;2023-07-02T00:48:46;4.00;;;1.40;;
14736;SDS011;7459;53.590;10.062;2023-07-02T00:51:14;5.55;;;1.50;;
14736;SDS011;7459;53.590;10.062;2023-07-02T00:53:44;5.85;;;1.30;;
14736;SDS011;7459;53.590;10.062;2023-07-02T00:56:11;8.90;;;1.60;;
14736;SDS011;7459;53.590;10.062;2023-07-02T00:58:40;4.47;;;1.30;;
14736;SDS011;7459;53.590;10.062;2023-07-02T01:01:16;6.60;;;1.92;;
14736;SDS011;7459;53.590;10.062;2023-07-02T01:06:26;8.82;;;1.85;;
14736;SDS011;7459;53.590;10.062;2023-07-02T01:09:04;4.97;;;1.70;;
14736;SDS011;7459;53.590;10.062;2023-07-02T01:11:31;5.13;;;1.33;;
14736;SDS011;7459;53.590;10.062;2023-07-02T01:16:52;7.55;;;1.67;;
14736;SDS011;7459;53.590;10.062;2023-07-02T01:22:17;5.37;;;1.40;;
14736;SDS011;7459;53.590;10.062;2023-07-02T01:24:51;6.30;;;1.77;;
14736;SDS011;7459;53.590;10.062;2023-07-02T01:27:18;5.78;;;2.10;;
14736;SDS011;7459;53.590;10.062;2023-07-02T01:29:45;4.85;;;1.50;;
14736;SDS011;7459;53.590;10.062;2023-07-02T01:32:11;6.72;;;1.60;;
14736;SDS011;7459;53.590;10.062;2023-07-02T01:34:40;6.90;;;1.57;;
14736;SDS011;7459;53.590;10.062;2023-07-02T01:37:09;8.65;;;2.35;;
14736;SDS011;7459;53.590;10.062;2023-07-02T01:39:34;5.93;;;2.05;;
14736;SDS011;7459;53.590;10.062;2023-07-02T01:42:07;7.15;;;2.10;;
14736;SDS011;7459;53.590;10.062;2023-07-02T01:44:37;9.03;;;1.70;;
14736;SDS011;7459;53.590;10.062;2023-07-02T01:47:04;4.90;;;1.75;;
14736;SDS011;7459;53.590;10.062;2023-07-02T01:49:30;5.95;;;1.98;;
14736;SDS011;7459;53.590;10.062;2023-07-02T01:51:56;6.20;;;1.92;;
14736;SDS011;7459;53.590;10.062;2023-07-02T01:54:22;5.50;;;1.60;;
14736;SDS011;7459;53.590;10.062;2023-07-02T01:56:52;6.68;;;2.03;;
14736;SDS011;7459;53.590;10.062;2023-07-02T01:59:18;6.15;;;2.38;;
14736;SDS011;7459;53.590;10.062;2023-07-02T02:01:44;5.95;;;2.08;;
14736;SDS011;7459;53.590;10.062;2023-07-02T02:06:45;6.68;;;1.98;;
14736;SDS011;7459;53.590;10.062;2023-07-02T02:09:11;6.53;;;1.98;;
14736;SDS011;7459;53.590;10.062;2023-07-02T02:11:38;6.60;;;2.03;;
14736;SDS011;7459;53.590;10.062;2023-07-02T02:14:07;5.65;;;2.05;;
14736;SDS011;7459;53.590;10.062;2023-07-02T02:16:33;6.33;;;2.00;;
14736;SDS011;7459;53.590;10.062;2023-07-02T02:18:58;7.57;;;2.55;;
14736;SDS011;7459;53.590;10.062;2023-07-02T02:21:25;7.53;;;2.90;;
14736;SDS011;7459;53.590;10.062;2023-07-02T02:23:51;6.10;;;1.98;;
14736;SDS011;7459;53.590;10.062;2023-07-02T02:26:16;5.77;;;1.80;;
14736;SDS011;7459;53.590;10.062;2023-07-02T02:28:42;6.83;;;2.43;;
14736;SDS011;7459;53.590;10.062;2023-07-02T02:31:08;6.30;;;2.30;;
14736;SDS011;7459;53.590;10.062;2023-07-02T02:33:34;6.78;;;2.15;;
14736;SDS011;7459;53.590;10.062;2023-07-02T02:36:00;11.05;;;2.17;;
14736;SDS011;7459;53.590;10.062;2023-07-02T02:38:27;6.03;;;2.20;;
14736;SDS011;7459;53.590;10.062;2023-07-02T02:40:53;5.47;;;1.70;;
14736;SDS011;7459;53.590;10.062;2023-07-02T02:43:19;6.97;;;2.40;;
14736;SDS011;7459;53.590;10.062;2023-07-02T02:45:45;7.23;;;2.27;;
14736;SDS011;7459;53.590;10.062;2023-07-02T02:48:11;9.30;;;2.85;;
14736;SDS011;7459;53.590;10.062;2023-07-02T02:50:37;8.57;;;2.42;;
14736;SDS011;7459;53.590;10.062;2023-07-02T02:53:09;9.93;;;2.67;;
14736;SDS011;7459;53.590;10.062;2023-07-02T02:55:35;6.13;;;2.60;;
14736;SDS011;7459;53.590;10.062;2023-07-02T02:58:01;8.18;;;2.63;;
14736;SDS011;7459;53.590;10.062;2023-07-02T03:00:28;10.82;;;2.65;;
14736;SDS011;7459;53.590;10.062;2023-07-02T03:02:53;5.53;;;3.03;;
14736;SDS011;7459;53.590;10.062;2023-07-02T03:05:20;7.20;;;2.30;;
14736;SDS011;7459;53.590;10.062;2023-07-02T03:07:49;6.50;;;2.80;;
14736;SDS011;7459;53.590;10.062;2023-07-02T03:10:15;8.88;;;2.90;;
14736;SDS011;7459;53.590;10.062;2023-07-02T03:12:41;8.40;;;2.53;;
14736;SDS011;7459;53.590;10.062;2023-07-02T03:15:07;9.05;;;2.60;;
14736;SDS011;7459;53.590;10.062;2023-07-02T03:17:34;8.70;;;2.00;;
14736;SDS011;7459;53.590;10.062;2023-07-02T03:20:00;7.70;;;3.07;;
14736;SDS011;7459;53.590;10.062;2023-07-02T03:22:26;9.18;;;2.95;;
14736;SDS011;7459;53.590;10.062;2023-07-02T03:24:51;6.82;;;2.60;;
14736;SDS011;7459;53.590;10.062;2023-07-02T03:27:17;11.47;;;2.50;;
14736;SDS011;7459;53.590;10.062;2023-07-02T03:29:43;12.25;;;2.80;;
14736;SDS011;7459;53.590;10.062;2023-07-02T03:32:08;7.07;;;2.17;;
14736;SDS011;7459;53.590;10.062;2023-07-02T03:34:34;8.35;;;2.78;;
14736;SDS011;7459;53.590;10.062;2023-07-02T03:37:00;7.57;;;2.10;;
14736;SDS011;7459;53.590;10.062;2023-07-02T03:39:25;7.65;;;2.65;;
14736;SDS011;7459;53.590;10.062;2023-07-02T03:41:51;10.30;;;2.23;;
14736;SDS011;7459;53.590;10.062;2023-07-02T03:44:17;8.38;;;2.42;;
14736;SDS011;7459;53.590;10.062;2023-07-02T03:46:44;7.03;;;2.57;;
14736;SDS011;7459;53.590;10.062;2023-07-02T03:49:10;8.02;;;2.67;;
14736;SDS011;7459;53.590;10.062;2023-07-02T03:51:35;12.20;;;2.67;;
14736;SDS011;7459;53.590;10.062;2023-07-02T03:54:01;7.18;;;2.40;;
14736;SDS011;7459;53.590;10.062;2023-07-02T03:56:27;6.93;;;2.40;;
14736;SDS011;7459;53.590;10.062;2023-07-02T03:58:52;9.77;;;3.63;;
14736;SDS011;7459;53.590;10.062;2023-07-02T04:01:18;11.03;;;3.07;;
14736;SDS011;7459;53.590;10.062;2023-07-02T04:03:47;9.07;;;2.90;;
14736;SDS011;7459;53.590;10.062;2023-07-02T04:06:14;8.90;;;2.65;;
14736;SDS011;7459;53.590;10.062;2023-07-02T04:08:40;8.05;;;2.75;;
14736;SDS011;7459;53.590;10.062;2023-07-02T04:11:06;11.13;;;2.67;;
14736;SDS011;7459;53.590;10.062;2023-07-02T04:13:32;8.43;;;2.22;;
14736;SDS011;7459;53.590;10.062;2023-07-02T04:15:58;7.83;;;2.90;;
14736;SDS011;7459;53.590;10.062;2023-07-02T04:18:23;10.90;;;2.88;;
14736;SDS011;7459;53.590;10.062;2023-07-02T04:20:49;10.23;;;2.80;;
14736;SDS011;7459;53.590;10.062;2023-07-02T04:23:15;9.93;;;2.90;;
14736;SDS011;7459;53.590;10.062;2023-07-02T04:25:41;11.07;;;2.70;;
14736;SDS011;7459;53.590;10.062;2023-07-02T04:28:07;7.47;;;2.30;;
14736;SDS011;7459;53.590;10.062;2023-07-02T04:30:32;9.75;;;3.10;;
14736;SDS011;7459;53.590;10.062;2023-07-02T04:32:58;9.03;;;2.87;;
14736;SDS011;7459;53.590;10.062;2023-07-02T04:35:24;12.18;;;3.10;;
14736;SDS011;7459;53.590;10.062;2023-07-02T04:37:49;10.63;;;3.23;;
14736;SDS011;7459;53.590;10.062;2023-07-02T04:40:15;11.57;;;3.10;;
14736;SDS011;7459;53.590;10.062;2023-07-02T04:42:41;13.50;;;3.60;;
14736;SDS011;7459;53.590;10.062;2023-07-02T04:45:12;9.80;;;3.07;;
14736;SDS011;7459;53.590;10.062;2023-07-02T04:47:40;13.55;;;2.80;;
14736;SDS011;7459;53.590;10.062;2023-07-02T04:50:07;11.23;;;3.03;;
14736;SDS011;7459;53.590;10.062;2023-07-02T04:52:33;12.85;;;3.33;;
14736;SDS011;7459;53.590;10.062;2023-07-02T04:54:59;12.23;;;2.97;;
14736;SDS011;7459;53.590;10.062;2023-07-02T04:57:25;11.82;;;2.90;;
14736;SDS011;7459;53.590;10.062;2023-07-02T04:59:50;12.40;;;2.93;;
14736;SDS011;7459;53.590;10.062;2023-07-02T05:02:17;12.02;;;3.08;;
14736;SDS011;7459;53.590;10.062;2023-07-02T05:04:42;15.95;;;3.40;;
14736;SDS011;7459;53.590;10.062;2023-07-02T05:07:08;13.07;;;3.13;;
14736;SDS011;7459;53.590;10.062;2023-07-02T05:09:34;13.38;;;3.28;;
14736;SDS011;7459;53.590;10.062;2023-07-02T05:11:59;12.57;;;3.27;;
14736;SDS011;7459;53.590;10.062;2023-07-02T05:14:25;11.05;;;2.97;;
14736;SDS011;7459;53.590;10.062;2023-07-02T05:16:50;11.93;;;3.77;;
14736;SDS011;7459;53.590;10.062;2023-07-02T05:19:16;13.00;;;3.50;;
14736;SDS011;7459;53.590;10.062;2023-07-02T05:21:42;14.03;;;3.20;;
14736;SDS011;7459;53.590;10.062;2023-07-02T05:24:08;21.13;;;4.10;;
14736;SDS011;7459;53.590;10.062;2023-07-02T05:26:34;15.43;;;3.50;;
14736;SDS011;7459;53.590;10.062;2023-07-02T05:29:00;11.77;;;3.03;;
14736;SDS011;7459;53.590;10.062;2023-07-02T05:31:26;18.30;;;4.55;;
14736;SDS011;7459;53.590;10.062;2023-07-02T05:33:52;18.97;;;4.10;;
14736;SDS011;7459;53.590;10.062;2023-07-02T05:36:19;15.33;;;4.13;;
14736;SDS011;7459;53.590;10.062;2023-07-02T05:38:45;17.52;;;4.00;;
14736;SDS011;7459;53.590;10.062;2023-07-02T05:41:11;12.82;;;4.15;;
14736;SDS011;7459;53.590;10.062;2023-07-02T05:43:43;15.43;;;4.17;;
14736;SDS011;7459;53.590;10.062;2023-07-02T05:46:09;13.70;;;3.45;;
14736;SDS011;7459;53.590;10.062;2023-07-02T05:48:35;14.03;;;5.00;;
14736;SDS011;7459;53.590;10.062;2023-07-02T05:51:01;14.88;;;3.42;;
14736;SDS011;7459;53.590;10.062;2023-07-02T05:53:27;15.32;;;3.53;;
14736;SDS011;7459;53.590;10.062;2023-07-02T05:55:53;16.00;;;4.13;;
14736;SDS011;7459;53.590;10.062;2023-07-02T05:58:18;20.75;;;3.63;;
14736;SDS011;7459;53.590;10.062;2023-07-02T06:00:44;14.10;;;3.77;;
14736;SDS011;7459;53.590;10.062;2023-07-02T06:03:14;12.73;;;3.42;;
14736;SDS011;7459;53.590;10.062;2023-07-02T06:05:45;19.98;;;4.30;;
14736;SDS011;7459;53.590;10.062;2023-07-02T06:08:13;12.18;;;3.97;;
14736;SDS011;7459;53.590;10.062;2023-07-02T06:10:38;19.53;;;4.20;;
14736;SDS011;7459;53.590;10.062;2023-07-02T06:13:04;13.13;;;3.40;;
14736;SDS011;7459;53.590;10.062;2023-07-02T06:15:30;17.37;;;4.67;;
14736;SDS011;7459;53.590;10.062;2023-07-02T06:17:56;19.20;;;4.57;;
14736;SDS011;7459;53.590;10.062;2023-07-02T06:20:21;16.63;;;4.07;;
14736;SDS011;7459;53.590;10.062;2023-07-02T06:22:47;19.97;;;4.33;;
14736;SDS011;7459;53.590;10.062;2023-07-02T06:25:13;20.50;;;3.90;;
14736;SDS011;7459;53.590;10.062;2023-07-02T06:27:39;15.40;;;4.00;;
14736;SDS011;7459;53.590;10.062;2023-07-02T06:30:05;16.48;;;3.83;;
14736;SDS011;7459;53.590;10.062;2023-07-02T06:32:31;15.55;;;4.47;;
14736;SDS011;7459;53.590;10.062;2023-07-02T06:34:57;16.02;;;3.80;;
14736;SDS011;7459;53.590;10.062;2023-07-02T06:37:23;18.77;;;4.17;;
14736;SDS011;7459;53.590;10.062;2023-07-02T06:39:48;17.45;;;4.32;;
14736;SDS011;7459;53.590;10.062;2023-07-02T06:42:14;16.50;;;4.17;;
14736;SDS011;7459;53.590;10.062;2023-07-02T06:44:40;19.40;;;4.50;;
14736;SDS011;7459;53.590;10.062;2023-07-02T06:47:06;17.33;;;4.07;;
14736;SDS011;7459;53.590;10.062;2023-07-02T06:49:32;18.10;;;4.32;;
14736;SDS011;7459;53.590;10.062;2023-07-02T06:51:58;17.60;;;3.35;;
14736;SDS011;7459;53.590;10.062;2023-07-02T06:54:25;17.08;;;4.30;;
14736;SDS011;7459;53.590;10.062;2023-07-02T06:56:51;19.30;;;4.80;;
14736;SDS011;7459;53.590;10.062;2023-07-02T06:59:23;20.13;;;5.22;;
14736;SDS011;7459;53.590;10.062;2023-07-02T07:01:49;15.40;;;4.20;;
14736;SDS011;7459;53.590;10.062;2023-07-02T07:04:15;16.77;;;4.30;;
14736;SDS011;7459;53.590;10.062;2023-07-02T07:06:41;13.20;;;4.10;;
14736;SDS011;7459;53.590;10.062;2023-07-02T07:09:08;14.38;;;4.20;;
14736;SDS011;7459;53.590;10.062;2023-07-02T07:11:34;22.95;;;5.72;;
14736;SDS011;7459;53.590;10.062;2023-07-02T07:14:00;17.65;;;5.75;;
14736;SDS011;7459;53.590;10.062;2023-07-02T07:16:26;19.40;;;4.30;;
14736;SDS011;7459;53.590;10.062;2023-07-02T07:18:52;18.88;;;4.60;;
14736;SDS011;7459;53.590;10.062;2023-07-02T07:21:17;21.80;;;4.17;;
14736;SDS011;7459;53.590;10.062;2023-07-02T07:23:43;16.15;;;4.53;;
14736;SDS011;7459;53.590;10.062;2023-07-02T07:26:09;15.87;;;4.60;;
14736;SDS011;7459;53.590;10.062;2023-07-02T07:28:34;16.35;;;4.53;;
14736;SDS011;7459;53.590;10.062;2023-07-02T07:31:00;16.35;;;4.10;;
14736;SDS011;7459;53.590;10.062;2023-07-02T07:33:26;18.07;;;4.43;;
14736;SDS011;7459;53.590;10.062;2023-07-02T07:35:52;17.10;;;4.18;;
14736;SDS011;7459;53.590;10.062;2023-07-02T07:38:18;18.90;;;4.32;;
14736;SDS011;7459;53.590;10.062;2023-07-02T07:40:44;15.83;;;4.67;;
14736;SDS011;7459;53.590;10.062;2023-07-02T07:43:10;15.82;;;4.65;;
14736;SDS011;7459;53.590;10.062;2023-07-02T07:45:35;20.55;;;4.28;;
14736;SDS011;7459;53.590;10.062;2023-07-02T07:48:02;18.17;;;4.00;;
14736;SDS011;7459;53.590;10.062;2023-07-02T07:50:29;15.43;;;3.78;;
14736;SDS011;7459;53.590;10.062;2023-07-02T07:52:55;15.32;;;4.13;;
14736;SDS011;7459;53.590;10.062;2023-07-02T07:55:21;18.50;;;4.03;;
14736;SDS011;7459;53.590;10.062;2023-07-02T07:57:47;17.25;;;4.72;;
14736;SDS011;7459;53.590;10.062;2023-07-02T08:00:12;13.70;;;4.00;;
14736;SDS011;7459;53.590;10.062;2023-07-02T08:02:39;18.02;;;4.78;;
14736;SDS011;7459;53.590;10.062;2023-07-02T08:05:05;16.00;;;3.95;;
14736;SDS011;7459;53.590;10.062;2023-07-02T08:07:32;11.35;;;3.58;;
14736;SDS011;7459;53.590;10.062;2023-07-02T08:09:58;13.33;;;3.73;;
14736;SDS011;7459;53.590;10.062;2023-07-02T08:12:24;14.60;;;4.03;;
14736;SDS011;7459;53.590;10.062;2023-07-02T08:14:52;15.65;;;3.90;;
14736;SDS011;7459;53.590;10.062;2023-07-02T08:17:18;12.27;;;4.03;;
14736;SDS011;7459;53.590;10.062;2023-07-02T08:19:44;11.52;;;3.78;;
14736;SDS011;7459;53.590;10.062;2023-07-02T08:22:09;17.20;;;4.20;;
14736;SDS011;7459;53.590;10.062;2023-07-02T08:24:35;16.63;;;3.95;;
14736;SDS011;7459;53.590;10.062;2023-07-02T08:27:01;12.23;;;3.83;;
14736;SDS011;7459;53.590;10.062;2023-07-02T08:29:27;14.40;;;3.75;;
14736;SDS011;7459;53.590;10.062;2023-07-02T08:31:54;13.25;;;3.65;;
14736;SDS011;7459;53.590;10.062;2023-07-02T08:34:21;14.23;;;3.70;;
14736;SDS011;7459;53.590;10.062;2023-07-02T08:36:46;13.00;;;3.27;;
14736;SDS011;7459;53.590;10.062;2023-07-02T08:39:12;9.32;;;3.30;;
14736;SDS011;7459;53.590;10.062;2023-07-02T08:41:42;16.33;;;3.28;;
14736;SDS011;7459;53.590;10.062;2023-07-02T08:44:10;12.97;;;3.30;;
14736;SDS011;7459;53.590;10.062;2023-07-02T08:46:40;12.02;;;3.70;;
14736;SDS011;7459;53.590;10.062;2023-07-02T08:49:07;14.75;;;4.03;;
14736;SDS011;7459;53.590;10.062;2023-07-02T08:51:34;11.65;;;3.08;;
14736;SDS011;7459;53.590;10.062;2023-07-02T08:54:00;13.23;;;3.10;;
14736;SDS011;7459;53.590;10.062;2023-07-02T08:56:27;13.47;;;3.20;;
14736;SDS011;7459;53.590;10.062;2023-07-02T08:58:53;15.10;;;3.40;;
14736;SDS011;7459;53.590;10.062;2023-07-02T09:01:19;11.50;;;2.88;;
14736;SDS011;7459;53.590;10.062;2023-07-02T09:03:45;10.03;;;2.97;;
14736;SDS011;7459;53.590;10.062;2023-07-02T09:06:11;10.73;;;2.88;;
14736;SDS011;7459;53.590;10.062;2023-07-02T09:08:37;13.10;;;2.70;;
14736;SDS011;7459;53.590;10.062;2023-07-02T09:11:07;12.53;;;2.73;;
14736;SDS011;7459;53.590;10.062;2023-07-02T09:13:44;10.10;;;2.15;;
14736;SDS011;7459;53.590;10.062;2023-07-02T09:19:03;9.77;;;2.95;;
14736;SDS011;7459;53.590;10.062;2023-07-02T09:21:47;12.48;;;2.20;;
14736;SDS011;7459;53.590;10.062;2023-07-02T09:24:14;10.33;;;2.50;;
14736;SDS011;7459;53.590;10.062;2023-07-02T09:26:48;14.15;;;3.10;;
14736;SDS011;7459;53.590;10.062;2023-07-02T09:29:18;10.90;;;2.00;;
14736;SDS011;7459;53.590;10.062;2023-07-02T09:31:49;14.00;;;2.40;;
14736;SDS011;7459;53.590;10.062;2023-07-02T09:34:16;13.18;;;2.42;;
14736;SDS011;7459;53.590;10.062;2023-07-02T09:36:42;13.60;;;2.33;;
14736;SDS011;7459;53.590;10.062;2023-07-02T09:39:13;11.55;;;2.45;;
14736;SDS011;7459;53.590;10.062;2023-07-02T09:41:44;9.38;;;2.65;;
14736;SDS011;7459;53.590;10.062;2023-07-02T09:44:14;8.10;;;3.22;;
14736;SDS011;7459;53.590;10.062;2023-07-02T09:46:53;9.50;;;2.77;;
14736;SDS011;7459;53.590;10.062;2023-07-02T09:49:33;16.23;;;3.35;;
14736;SDS011;7459;53.590;10.062;2023-07-02T09:52:07;10.80;;;3.10;;
14736;SDS011;7459;53.590;10.062;2023-07-02T09:54:35;13.23;;;3.20;;
14736;SDS011;7459;53.590;10.062;2023-07-02T09:57:02;9.20;;;2.95;;
14736;SDS011;7459;53.590;10.062;2023-07-02T09:59:29;16.37;;;2.80;;
14736;SDS011;7459;53.590;10.062;2023-07-02T10:01:55;12.20;;;2.20;;
14736;SDS011;7459;53.590;10.062;2023-07-02T10:04:21;9.65;;;2.58;;
14736;SDS011;7459;53.590;10.062;2023-07-02T10:06:56;10.25;;;2.47;;
14736;SDS011;7459;53.590;10.062;2023-07-02T10:09:38;9.75;;;2.20;;
14736;SDS011;7459;53.590;10.062;2023-07-02T10:14:42;11.25;;;2.38;;
14736;SDS011;7459;53.590;10.062;2023-07-02T10:17:08;8.35;;;2.45;;
14736;SDS011;7459;53.590;10.062;2023-07-02T10:19:34;11.40;;;2.42;;
14736;SDS011;7459;53.590;10.062;2023-07-02T10:22:00;7.33;;;2.10;;
14736;SDS011;7459;53.590;10.062;2023-07-02T10:24:32;9.98;;;2.15;;
14736;SDS011;7459;53.590;10.062;2023-07-02T10:26:59;7.88;;;1.50;;
14736;SDS011;7459;53.590;10.062;2023-07-02T10:29:28;9.38;;;1.90;;
14736;SDS011;7459;53.590;10.062;2023-07-02T10:31:57;8.53;;;2.10;;
14736;SDS011;7459;53.590;10.062;2023-07-02T10:34:32;11.85;;;2.00;;
14736;SDS011;7459;53.590;10.062;2023-07-02T10:37:00;13.20;;;2.25;;
14736;SDS011;7459;53.590;10.062;2023-07-02T10:39:28;9.70;;;2.08;;
14736;SDS011;7459;53.590;10.062;2023-07-02T10:42:04;12.35;;;3.38;;
14736;SDS011;7459;53.590;10.062;2023-07-02T10:44:34;7.80;;;2.40;;
14736;SDS011;7459;53.590;10.062;2023-07-02T10:47:15;11.23;;;2.22;;
14736;SDS011;7459;53.590;10.062;2023-07-02T10:49:40;9.68;;;2.92;;
14736;SDS011;7459;53.590;10.062;2023-07-02T10:52:06;11.60;;;2.50;;
14736;SDS011;7459;53.590;10.062;2023-07-02T10:54:42;7.70;;;1.92;;
14736;SDS011;7459;53.590;10.062;2023-07-02T10:57:13;7.00;;;1.98;;
14736;SDS011;7459;53.590;10.062;2023-07-02T10:59:41;11.18;;;2.40;;
14736;SDS011;7459;53.590;10.062;2023-07-02T11:02:07;8.87;;;1.80;;
14736;SDS011;7459;53.590;10.062;2023-07-02T11:04:35;11.00;;;1.80;;
14736;SDS011;7459;53.590;10.062;2023-07-02T11:07:01;13.60;;;2.42;;
14736;SDS011;7459;53.590;10.062;2023-07-02T11:09:27;12.13;;;2.83;;
14736;SDS011;7459;53.590;10.062;2023-07-02T11:11:53;9.13;;;1.90;;
14736;SDS011;7459;53.590;10.062;2023-07-02T11:14:27;9.90;;;2.50;;
14736;SDS011;7459;53.590;10.062;2023-07-02T11:17:04;10.65;;;1.77;;
14736;SDS011;7459;53.590;10.062;2023-07-02T11:19:31;7.93;;;1.87;;
14736;SDS011;7459;53.590;10.062;2023-07-02T11:21:58;7.18;;;1.70;;
14736;SDS011;7459;53.590;10.062;2023-07-02T11:26:55;9.88;;;2.30;;
14736;SDS011;7459;53.590;10.062;2023-07-02T11:29:22;9.23;;;1.95;;
14736;SDS011;7459;53.590;10.062;2023-07-02T11:31:48;12.47;;;2.27;;
14736;SDS011;7459;53.590;10.062;2023-07-02T11:34:18;9.63;;;2.05;;
14736;SDS011;7459;53.590;10.062;2023-07-02T11:36:47;10.57;;;1.95;;
14736;SDS011;7459;53.590;10.062;2023-07-02T11:39:13;10.37;;;1.40;;
14736;SDS011;7459;53.590;10.062;2023-07-02T11:41:41;6.82;;;1.27;;
14736;SDS011;7459;53.590;10.062;2023-07-02T11:44:09;10.48;;;1.35;;
14736;SDS011;7459;53.590;10.062;2023-07-02T11:46:35;11.98;;;1.75;;
14736;SDS011;7459;53.590;10.062;2023-07-02T11:49:01;8.60;;;1.70;;
14736;SDS011;7459;53.590;10.062;2023-07-02T11:51:29;9.32;;;1.58;;
14736;SDS011;7459;53.590;10.062;2023-07-02T11:53:56;7.22;;;1.65;;
14736;SDS011;7459;53.590;10.062;2023-07-02T11:56:22;7.93;;;1.42;;
14736;SDS011;7459;53.590;10.062;2023-07-02T11:58:48;10.45;;;1.45;;
14736;SDS011;7459;53.590;10.062;2023-07-02T12:01:14;11.20;;;1.37;;
14736;SDS011;7459;53.590;10.062;2023-07-02T12:03:40;6.93;;;1.60;;
14736;SDS011;7459;53.590;10.062;2023-07-02T12:06:05;7.97;;;1.47;;
14736;SDS011;7459;53.590;10.062;2023-07-02T12:08:31;8.18;;;1.92;;
14736;SDS011;7459;53.590;10.062;2023-07-02T12:10:57;7.23;;;2.17;;
14736;SDS011;7459;53.590;10.062;2023-07-02T12:13:22;6.65;;;1.40;;
14736;SDS011;7459;53.590;10.062;2023-07-02T12:15:48;8.23;;;1.40;;
14736;SDS011;7459;53.590;10.062;2023-07-02T12:18:16;8.20;;;1.02;;
14736;SDS011;7459;53.590;10.062;2023-07-02T12:20:42;8.40;;;1.67;;
14736;SDS011;7459;53.590;10.062;2023-07-02T12:23:08;9.35;;;1.80;;
14736;SDS011;7459;53.590;10.062;2023-07-02T12:25:36;9.77;;;2.23;;
14736;SDS011;7459;53.590;10.062;2023-07-02T12:28:03;9.70;;;1.75;;
14736;SDS011;7459;53.590;10.062;2023-07-02T12:30:29;8.70;;;1.85;;
14736;SDS011;7459;53.590;10.062;2023-07-02T12:32:56;7.93;;;1.80;;
14736;SDS011;7459;53.590;10.062;2023-07-02T12:35:22;5.97;;;1.20;;
14736;SDS011;7459;53.590;10.062;2023-07-02T12:37:49;7.50;;;1.30;;
14736;SDS011;7459;53.590;10.062;2023-07-02T12:40:17;8.23;;;1.50;;
14736;SDS011;7459;53.590;10.062;2023-07-02T12:42:45;9.33;;;1.30;;
14736;SDS011;7459;53.590;10.062;2023-07-02T12:45:12;8.63;;;1.48;;
14736;SDS011;7459;53.590;10.062;2023-07-02T12:47:39;10.15;;;1.45;;
14736;SDS011;7459;53.590;10.062;2023-07-02T12:50:07;5.95;;;0.90;;
14736;SDS011;7459;53.590;10.062;2023-07-02T12:52:34;5.10;;;1.63;;
14736;SDS011;7459;53.590;10.062;2023-07-02T12:54:59;9.20;;;1.60;;
14736;SDS011;7459;53.590;10.062;2023-07-02T12:57:26;9.73;;;1.40;;
14736;SDS011;7459;53.590;10.062;2023-07-02T12:59:53;6.60;;;1.15;;
14736;SDS011;7459;53.590;10.062;2023-07-02T13:02:19;8.70;;;1.70;;
14736;SDS011;7459;53.590;10.062;2023-07-02T13:04:48;6.80;;;1.10;;
14736;SDS011;7459;53.590;10.062;2023-07-02T13:07:15;7.50;;;1.70;;
14736;SDS011;7459;53.590;10.062;2023-07-02T13:09:41;6.93;;;1.20;;
14736;SDS011;7459;53.590;10.062;2023-07-02T13:12:08;9.50;;;1.10;;
14736;SDS011;7459;53.590;10.062;2023-07-02T13:14:34;7.65;;;1.55;;
14736;SDS011;7459;53.590;10.062;2023-07-02T13:17:00;7.93;;;0.77;;
14736;SDS011;7459;53.590;10.062;2023-07-02T13:19:28;6.18;;;0.82;;
14736;SDS011;7459;53.590;10.062;2023-07-02T13:21:53;10.63;;;1.30;;
14736;SDS011;7459;53.590;10.062;2023-07-02T13:24:19;7.68;;;1.25;;
14736;SDS011;7459;53.590;10.062;2023-07-02T13:26:45;14.37;;;0.87;;
14736;SDS011;7459;53.590;10.062;2023-07-02T13:29:10;6.82;;;0.80;;
14736;SDS011;7459;53.590;10.062;2023-07-02T13:31:36;6.73;;;0.80;;
14736;SDS011;7459;53.590;10.062;2023-07-02T13:34:02;7.63;;;1.05;;
14736;SDS011;7459;53.590;10.062;2023-07-02T13:36:27;7.63;;;0.60;;
14736;SDS011;7459;53.590;10.062;2023-07-02T13:38:53;4.32;;;0.65;;
14736;SDS011;7459;53.590;10.062;2023-07-02T13:41:20;4.03;;;0.80;;
14736;SDS011;7459;53.590;10.062;2023-07-02T13:43:45;5.70;;;1.27;;
14736;SDS011;7459;53.590;10.062;2023-07-02T13:46:11;6.20;;;1.17;;
14736;SDS011;7459;53.590;10.062;2023-07-02T13:48:37;7.93;;;1.10;;
14736;SDS011;7459;53.590;10.062;2023-07-02T13:51:03;11.75;;;1.23;;
14736;SDS011;7459;53.590;10.062;2023-07-02T13:53:29;4.88;;;0.80;;
14736;SDS011;7459;53.590;10.062;2023-07-02T13:55:55;7.60;;;0.90;;
14736;SDS011;7459;53.590;10.062;2023-07-02T13:58:22;8.43;;;1.23;;
14736;SDS011;7459;53.590;10.062;2023-07-02T14:00:48;5.18;;;0.85;;
14736;SDS011;7459;53.590;10.062;2023-07-02T14:03:13;7.20;;;0.90;;
14736;SDS011;7459;53.590;10.062;2023-07-02T14:05:39;12.73;;;0.80;;
14736;SDS011;7459;53.590;10.062;2023-07-02T14:08:05;4.50;;;1.00;;
14736;SDS011;7459;53.590;10.062;2023-07-02T14:10:31;5.20;;;1.20;;
14736;SDS011;7459;53.590;10.062;2023-07-02T14:12:57;8.70;;;1.20;;
14736;SDS011;7459;53.590;10.062;2023-07-02T14:15:23;5.10;;;1.20;;
14736;SDS011;7459;53.590;10.062;2023-07-02T14:17:50;6.80;;;0.98;;
14736;SDS011;7459;53.590;10.062;2023-07-02T14:20:16;6.10;;;1.13;;
14736;SDS011;7459;53.590;10.062;2023-07-02T14:22:42;5.05;;;1.20;;
14736;SDS011;7459;53.590;10.062;2023-07-02T14:25:08;4.95;;;0.95;;
14736;SDS011;7459;53.590;10.062;2023-07-02T14:27:34;8.67;;;1.17;;
14736;SDS011;7459;53.590;10.062;2023-07-02T14:29:59;11.73;;;1.23;;
14736;SDS011;7459;53.590;10.062;2023-07-02T14:32:32;8.63;;;1.65;;
14736;SDS011;7459;53.590;10.062;2023-07-02T14:35:00;5.78;;;0.95;;
14736;SDS011;7459;53.590;10.062;2023-07-02T14:37:27;6.93;;;1.23;;
14736;SDS011;7459;53.590;10.062;2023-07-02T14:39:52;6.43;;;1.17;;
14736;SDS011;7459;53.590;10.062;2023-07-02T14:42:18;4.50;;;0.90;;
14736;SDS011;7459;53.590;10.062;2023-07-02T14:44:44;11.25;;;1.17;;
14736;SDS011;7459;53.590;10.062;2023-07-02T14:47:09;4.33;;;0.73;;
14736;SDS011;7459;53.590;10.062;2023-07-02T14:49:36;5.65;;;0.95;;
14736;SDS011;7459;53.590;10.062;2023-07-02T14:52:02;6.93;;;0.90;;
14736;SDS011;7459;53.590;10.062;2023-07-02T14:54:28;6.13;;;1.00;;
14736;SDS011;7459;53.590;10.062;2023-07-02T14:56:53;5.15;;;0.80;;
14736;SDS011;7459;53.590;10.062;2023-07-02T14:59:19;8.77;;;1.40;;